CDT,Max TemperatureF,Mean TemperatureF,Min TemperatureF,Max Dew PointF,MeanDew PointF,Min DewpointF,Max Humidity, Mean Humidity, Min Humidity, Max Sea Level PressureIn, Mean Sea Level PressureIn, Min Sea Level PressureIn, Max VisibilityMiles, Mean VisibilityMiles, Min VisibilityMiles, Max Wind SpeedMPH, Mean Wind SpeedMPH, Max Gust SpeedMPH,PrecipitationIn, CloudCover, Events, WindDirDegrees
2012-10-1,65,58,50,50,45,43,80,62,44,29.89,29.83,29.78,10,10,10,14,9,18,T,3,,43
2012-10-2,62,58,53,57,53,46,100,78,56,29.87,29.83,29.76,10,5,2,20,10,25,0.29,8,Rain,28
2012-10-3,72,63,54,58,56,50,100,74,47,30.07,29.96,29.86,10,5,0,16,7,20,0.02,7,Fog,220
2012-10-4,82,67,51,59,54,48,100,70,39,30.18,30.12,30.05,10,10,7,25,12,31,0.02,4,Rain,244
2012-10-5,52,44,36,48,42,35,93,88,83,30.21,30.18,30.14,10,8,2,21,7,28,0.77,7,Rain,310
2012-10-6,52,42,31,34,32,30,96,71,46,30.23,30.20,30.15,10,10,10,17,8,23,0.00,1,,293
2012-10-7,51,41,31,35,30,27,85,64,42,30.25,30.21,30.18,10,10,10,14,5,21,0.00,5,,293
2012-10-8,59,43,27,35,30,24,85,59,33,30.24,30.17,30.09,10,10,10,18,9,22,0.00,0,,188
2012-10-9,65,53,40,45,40,35,79,61,43,30.09,30.00,29.91,10,10,10,26,15,32,T,1,,200
2012-10-10,55,44,32,43,34,28,93,66,38,30.24,30.15,29.99,10,10,6,23,10,31,0.01,2,Rain,281
2012-10-11,65,49,32,40,33,28,85,58,31,30.26,30.22,30.16,10,10,10,23,12,28,0.00,0,,204
2012-10-12,61,52,43,42,38,35,83,60,36,30.41,30.31,30.22,10,10,10,21,11,28,0.00,0,,50
2012-10-13,69,58,46,64,54,40,87,82,76,30.26,30.06,29.89,10,6,1,21,13,25,0.48,6,Rain-Thunderstorm,164
2012-10-14,74,62,49,63,58,46,93,77,61,29.87,29.71,29.57,10,9,2,37,24,47,0.04,7,Rain,223
2012-10-15,62,51,40,46,41,38,93,68,42,29.99,29.95,29.87,10,10,6,20,8,23,0.00,0,,285
2012-10-16,74,56,38,53,46,36,92,68,44,29.98,29.80,29.64,10,10,10,28,14,35,0.00,0,,153
2012-10-17,69,61,53,59,54,48,93,78,63,29.66,29.50,29.35,10,8,2,31,17,37,0.62,5,Rain-Thunderstorm,201
2012-10-18,58,51,44,51,41,35,93,70,47,29.62,29.53,29.47,10,10,10,31,17,38,0.05,4,Rain,230
2012-10-19,51,49,46,46,45,42,93,90,86,29.71,29.58,29.48,10,7,2,23,14,28,0.60,8,Rain,252
2012-10-20,58,50,42,46,44,38,100,79,57,29.98,29.83,29.71,10,9,5,15,7,20,T,6,Rain,266
2012-10-21,72,56,39,54,47,37,100,75,49,30.03,30.00,29.96,10,8,2,17,10,52,0.00,1,,130
2012-10-22,69,65,60,62,58,54,93,78,63,30.05,29.97,29.91,10,9,1,24,13,32,0.62,4,Rain-Thunderstorm,169
2012-10-23,70,65,60,62,58,54,90,79,67,29.99,29.94,29.92,10,9,5,20,11,23,0.23,5,Rain-Thunderstorm,183
2012-10-24,79,69,59,65,60,55,87,75,62,30.00,29.96,29.91,10,10,10,20,13,23,0.00,2,,179
2012-10-25,79,62,45,62,53,42,92,75,58,30.11,29.93,29.78,10,9,2,31,19,40,0.52,5,Rain,232
2012-10-26,50,43,35,43,34,32,85,71,56,30.32,30.26,30.09,10,10,9,28,14,33,0.00,4,Rain,348
2012-10-27,51,43,34,35,32,30,89,70,50,30.30,30.26,30.21,10,10,10,21,13,29,0.00,0,,355
2012-10-28,51,43,34,34,31,29,82,64,46,30.26,30.24,30.21,10,10,10,21,13,26,0.00,2,,3
2012-10-29,54,43,32,36,32,27,89,67,44,30.27,30.19,30.05,10,10,10,25,15,30,0.00,1,,345
2012-10-30,50,43,36,28,27,25,70,55,39,30.03,29.87,29.80,10,10,10,32,20,39,0.00,2,,328
2012-10-31,50,40,29,31,27,23,78,62,46,29.93,29.88,29.83,10,10,10,23,12,29,0.00,0,,302